Garyville, LA (70051)

4:52 AM CDT en Agosto 27, 2016 (GMT -0500)
Gramercy, LA | | Change Station

Alt 16 ft 30.06 °N, 90.70 °W | Updated 5 minutes ago

Clear
Despejado
76.3 ° F
Sensación térmica 76 ° F
N
0.0
Viento Variable Viento desde NNE
Gusts 2.0 mph

Hoy
Alta -- | Baja -- ° F
--% Posibilidad de precipitaciones
Ayer
Alta -- | Baja -- ° F
Precip. -- pul
Presión 29.94 pul
Visibilidad 10.0 Millas
Nubes Despejado
Índice de calor 76 ° F
Punto de rocío 75 ° F
Humedad 94%
Precipitaciones 0.00 pul
Espesor de la nieve No disponible.
6:36 AM 7:30 PM
Creciente menguante, 26% visible
METAR KL38 270935Z AUTO 00000KT 10SM CLR 24/24 A2994 RMK AO2 LTG DSNT SW T02430243
Presión 29.94 pul
Visibilidad 10.0 Millas
Nubes Despejado
Índice de calor 76 ° F
Punto de rocío 75 ° F
Humedad 94%
Precipitaciones 0.00 pul
Espesor de la nieve No disponible.
6:36 AM 7:30 PM
Creciente menguante, 26% visible
METAR KL38 270935Z AUTO 00000KT 10SM CLR 24/24 A2994 RMK AO2 LTG DSNT SW T02430243

10-Day Weather Forecast

Almanac

Astronomía

Aug. 27, 2016 Salida Puesta
Hora real
Crepúsculo civil
Crepúsculo náutico
Crepúsculo astronómico
Luna
Horas de luz
Horas de luz
Tomorrow will be .
, % of the Moon is Illuminated

Extremos de hoy

Máximos del estado Bajos del estado

Community

WunderPhotos

Upload Photos

1,935,313 ¡fotos cargadas!

WunderBlog® & News

Nearby

Calidad del aire

  Calidad del aire Índice AQ Contaminante
Not available.

Grosos de nieve

Estación Profundido Altura

Actividad de terremotos

Ciudad Distance Mag. Tiempo y dato
Magnitud mínima muestra es 2,5.

Temperaturas de aguas costeras

Lugar Temperatura

Stations

Estaciones meteorológicas cercanas

Ubicación de la estación Temp. Vientos helados Punto de rocío Humedad Viento Precip. Alt Actualizado Tipo
                   

Watches & Warnings

There are currently no watches in effect.